• Join FlightAware (Why Join?)
  • Login
  • US Flag 
02:51AM EDT


 

Airport Tracker/Info


-or-


 

Live Flight TrackerFlight Track Log ✈ EJA941 ✈ 30-Jun-2013 ✈ KJFK - KJAX

Flight Track Log - Related Links

Times and Time Zones

All times are in EDT time to prevent confusion due to time zone crossing. See the EJA941 flight status page for this flight to view local times or setup timezone preferences in your user account.

Time Position Orientation Groundspeed Altitude Reporting Facility
EDT Latitude Longitude Course Direction KTS MPH feet Rate Location/Type
07:04PM 37.7707 -76.2735 215° Southwest  Level Estimated
07:05PM 37.6798 -76.3486 213° Southwest  Level Estimated
07:06PM 37.5889 -76.4235 213° Southwest  Level Estimated
07:07PM 37.4979 -76.4982 213° Southwest  Level Estimated
07:08PM 37.4069 -76.5727 213° Southwest  Level Estimated
07:09PM 37.3168 -76.6463 213° Southwest  Level Estimated
07:10PM 37.2268 -76.7196 213° Southwest  Level Estimated
07:11PM 37.1366 -76.7928 213° Southwest  Level Estimated
07:12PM 37.0464 -76.8658 213° Southwest  Level Estimated
07:13PM 36.9562 -76.9386 213° Southwest  Level Estimated
07:14PM 36.8659 -77.0113 213° Southwest  Level Estimated
07:15PM 36.7756 -77.0837 213° Southwest  Level Estimated
07:16PM 36.6853 -77.1561 213° Southwest  Level Estimated
07:17PM 36.5949 -77.2282 213° Southwest  Level Estimated
07:18PM 36.5044 -77.3002 213° Southwest  Level Estimated
07:19PM 36.4139 -77.3720 213° Southwest  Level Estimated
07:20PM 36.3234 -77.4436 213° Southwest  Level Estimated
07:21PM 36.2328 -77.5151 212° Southwest  Level Estimated
07:22PM 36.1422 -77.5864 212° Southwest  Level Estimated
07:23PM 36.0516 -77.6575 212° Southwest  Level Estimated
07:24PM 35.9608 -77.7285 212° Southwest  Level Estimated
07:25PM 35.8701 -77.7993 212° Southwest  Level Estimated
07:26PM 35.7793 -77.8700 212° Southwest  Level Estimated
07:27PM 35.6897 -77.9396 212° Southwest  Level Estimated
07:28PM 35.6001 -78.0090 212° Southwest  Level Estimated
07:29PM 35.5103 -78.0782 212° Southwest  Level Estimated
07:30PM 35.4206 -78.1473 212° Southwest  Level Estimated
07:31PM 35.3308 -78.2162 212° Southwest  Level Estimated
07:32PM 35.2410 -78.2850 212° Southwest  Level Estimated
07:33PM 35.1511 -78.3537 212° Southwest  Level Estimated
07:34PM 35.0613 -78.4222 212° Southwest  Level Estimated
07:35PM 34.9713 -78.4905 212° Southwest  Level Estimated
07:36PM 34.8814 -78.5587 212° Southwest  Level Estimated
07:37PM 34.7914 -78.6267 212° Southwest  Level Estimated
07:38PM 34.7013 -78.6946 212° Southwest  Level Estimated
07:39PM 34.6112 -78.7623 212° Southwest  Level Estimated
07:40PM 34.5239 -78.8278 212° Southwest  Level Estimated
07:41PM 34.4365 -78.8932 212° Southwest  Level Estimated
07:42PM 34.3491 -78.9584 212° Southwest  Level Estimated
07:43PM 34.2616 -79.0235 212° Southwest  Level Estimated
07:44PM 34.1741 -79.0885 212° Southwest  Level Estimated
07:45PM 34.0866 -79.1533 212° Southwest  Level Estimated
07:46PM 33.9991 -79.2180 211° Southwest  Level Estimated
07:47PM 33.9069 -79.2780 208° Southwest  Level FlightAware Approximate
07:48PM 33.8147 -79.3379 208° Southwest  Level FlightAware Approximate
07:49PM 33.7224 -79.3977 208° Southwest  Level FlightAware Approximate
07:50PM 33.6302 -79.4573 208° Southwest  Level FlightAware Approximate
07:51PM 33.5379 -79.5168 208° Southwest  Level FlightAware Approximate
07:52PM 33.4588 -79.5993 221° Southwest  Level FlightAware Approximate
07:53PM 33.3797 -79.6816 221° Southwest  Level FlightAware Approximate
07:54PM 33.3006 -79.7637 221° Southwest  Level FlightAware Approximate
07:55PM 33.2105 -79.8277 206° Southwest  Level Estimated
07:56PM 33.1178 -79.8861 208° Southwest  Level FlightAware Approximate
07:57PM 33.0251 -79.9444 208° Southwest  Level FlightAware Approximate
07:58PM 32.9324 -80.0026 208° Southwest  Level FlightAware Approximate
07:59PM 32.8425 -80.0667 211° Southwest  Level Estimated
08:00PM 32.7509 -80.1273 209° Southwest  Level FlightAware Approximate
08:01PM 32.6610 -80.1912 217° Southwest  Level Estimated
08:02PM 32.5803 -80.2706 220° Southwest  Level FlightAware Approximate
08:03PM 32.4900 -80.3335 203° Southwest  Level Estimated
08:04PM 32.3996 -80.3963 215° Southwest  Level Estimated
08:05PM 32.3092 -80.4590 216° Southwest  Level Estimated
08:06PM 32.2187 -80.5216 212° Southwest  Level Estimated
08:07PM 32.1372 -80.5994 219° Southwest  Level FlightAware Approximate
08:08PM 32.0463 -80.6608 213° Southwest  Level Estimated
08:09PM 31.9646 -80.7381 219° Southwest  Level FlightAware Approximate
08:10PM 31.8730 -80.7982 213° Southwest  Level Estimated
08:11PM 31.7915 -80.8756 219° Southwest  Level FlightAware Approximate
08:12PM 31.6965 -80.9450 213° Southwest  Level FlightAware Approximate
08:13PM 31.6089 -81.0125 213° Southwest  Level FlightAware Approximate
08:14PM 31.5212 -81.0798 213° Southwest  Level FlightAware Approximate
08:15PM 31.4312 -81.1417 214° Southwest  Level FlightAware Approximate
08:16PM 31.3447 -81.2109 214° Southwest  Level FlightAware Approximate
08:17PM 31.2571 -81.2782 213° Southwest  Level FlightAware Approximate
08:18PM 31.1689 -81.3443 213° Southwest  Level FlightAware Approximate
08:19PM 31.0807 -81.4104 213° Southwest  Level FlightAware Approximate
08:20PM 30.9822 -81.4430 187° South  Level FlightAware Approximate
08:21PM 30.8779 -81.4539 185° South  Level FlightAware Approximate
08:22PM 30.7735 -81.4643 185° South  Level FlightAware Approximate
08:23PM 30.6690 -81.4729 184° South  Level FlightAware Approximate
08:24PM 30.5644 -81.4809 184° South  Level FlightAware Approximate
08:25PM 30.4597 -81.4833 180° South  Level FlightAware Approximate
08:26PM 30.3562 -81.5000 180° South  Level FlightAware Approximate
08:27PM 30.3869 -81.5702 319° Northwest  Level FlightAware Approximate
08:28PM 30.4618 -81.6547 311° West  Level FlightAware Approximate
08:29PM 30.4833 -81.6833 311° West  Level FlightAware Approximate
08:30PM 30.4941 -81.6879 311° West  Level Estimated
08:31PM 30.4941 -81.6879 311° West  Level Estimated
08:32PM 30.4941 -81.6879 311° West  Level Estimated
08:33PM 30.4941 -81.6879 311° West  Level Estimated
08:34PM 30.4941 -81.6879 311° West  Level Estimated
08:35PM 30.4941 -81.6879 311° West  Level Estimated
08:36PM 30.4941 -81.6879 311° West  Level Estimated
08:37PM 30.4941 -81.6879 311° West  Level Estimated
08:38PM 30.4941 -81.6879 311° West  Level Estimated
08:39PM 30.4941 -81.6879 311° West  Level Estimated
08:40PM 30.4941 -81.6879 311° West  Level Estimated
08:41PM 30.4941 -81.6879 311° West  Level Estimated
08:42PM 30.4941 -81.6879 311° West  Level Estimated
08:43PM 30.4941 -81.6879 311° West  Level Estimated
08:44PM 30.4941 -81.6879 311° West  Level Estimated
08:45PM 30.4941 -81.6879 311° West  Level Estimated
08:46PM 30.4941 -81.6879 311° West  Level Estimated
08:47PM 30.4941 -81.6879 311° West  Level Estimated
08:48PM 30.4941 -81.6879 311° West  Level Estimated
08:49PM 30.4941 -81.6879 311° West  Level Estimated
08:50PM 30.4941 -81.6879 311° West  Level Estimated
08:51PM 30.4941 -81.6879 311° West  Level Estimated
08:52PM 30.4941 -81.6879 311° West  Level Estimated
08:53PM 30.4941 -81.6879 311° West  Level Estimated
08:54PM 30.4941 -81.6879 311° West  Level Estimated
08:55PM 30.4941 -81.6879 311° West  Level Estimated